This is the latest recevied weather packets stored in our database for station/object HB9SZU-6. If no packets are shown the sender has not sent any weather packets the latest 10 day(s).
| Time | Temp. | Humidity | Pressure | Rain* | Wind** | Luminosity | Snow |
|---|---|---|---|---|---|---|---|
| 1778071691 | 13.33° C | 80% | 1014.2 hPa | 0.25 mm | - | - | - |
| 1778070791 | 13.33° C | 80% | 1014.2 hPa | 0.25 mm | - | - | - |
| 1778069891 | 14.44° C | 78% | 1013.5 hPa | 0 mm | - | - | - |
| 1778068991 | 15° C | 79% | 1012.6 hPa | 0 mm | - | - | - |
| 1778068090 | 15° C | 80% | 1012.7 hPa | 0 mm | - | - | - |
| 1778067190 | 14.44° C | 80% | 1012.8 hPa | 0 mm | - | - | - |
| 1778066291 | 14.44° C | 80% | 1013 hPa | 0 mm | - | - | - |
| 1778065391 | 13.89° C | 80% | 1013.4 hPa | 0 mm | - | - | - |
| 1778064491 | 13.33° C | 80% | 1013.6 hPa | 0 mm | - | - | - |
| 1778063590 | 13.33° C | 81% | 1013.5 hPa | 0 mm | - | - | - |
| 1778062691 | 13.33° C | 81% | 1013.5 hPa | 0 mm | - | - | - |
| 1778061791 | 13.33° C | 81% | 1013 hPa | 0 mm | - | - | - |
| 1778060891 | 13.89° C | 81% | 1012.9 hPa | 0 mm | - | - | - |
| 1778059991 | 13.89° C | 81% | 1013.1 hPa | 0 mm | - | - | - |
| 1778059091 | 13.89° C | 81% | 1013 hPa | 0 mm | - | - | - |
| 1778058191 | 13.89° C | 81% | 1012.8 hPa | 0 mm | - | - | - |
| 1778057291 | 13.33° C | 81% | 1012.9 hPa | 0 mm | - | - | - |
| 1778056392 | 13.33° C | 81% | 1013.3 hPa | 0 mm | - | - | - |
| 1778055491 | 12.78° C | 81% | 1013.3 hPa | 0 mm | - | - | - |
| 1778054590 | 12.78° C | 81% | 1013.4 hPa | 0 mm | - | - | - |
| 1778053691 | 12.78° C | 81% | 1013.6 hPa | 0 mm | - | - | - |
| 1778052791 | 12.22° C | 81% | 1013.5 hPa | 0 mm | - | - | - |
| 1778051891 | 12.22° C | 81% | 1013.6 hPa | 0 mm | - | - | - |
| 1778050991 | 12.78° C | 81% | 1013.6 hPa | 0 mm | - | - | - |
| 1778050091 | 12.22° C | 81% | 1013.9 hPa | 0 mm | - | - | - |
* Rain latest hour (hover to see other rain measurements)
** Current wind speed in m/s (hover to see current wind gust speed)